Alameda, OR

1:11 PM PST on December 28, 2014 (GMT -0800)
Portland-Troutdale | Change Station
CLOSE
Current Station
Airport
Location: Portland Troutdale,
Elevation: 36 ft
Nearby Weather Stations
Active Advisory: Special Statement

Elev 36 ft 45.55 °N, 122.41 °W | Updated 18 minutes ago

Overcast
Overcast
46 °F
Feels Like 43 °F
N
6
Wind Variable Wind from SW

Today
High -- | Low -- °F
--% Chance of Precip.
Yesterday
High -- | Low -- °F
Precip. -- in
7:50 AM 4:34 PM
Waxing Crescent, 51% visible
Pressure 30.24 in
Visibility 10.0 miles
Clouds Few 4600 ft
Scattered Clouds 7000 ft
Overcast 10000 ft
Windchill 43 °F
Dew Point 40 °F
Humidity 79%
Rainfall 0.11 in
Snow Depth Not available.
UV 0 out of 12
Pollen .50 out of 12
Air Quality Not available.
Flu Activity Not available.
METAR KTTD 282053Z 23005KT 10SM FEW046 SCT070 OVC100 08/04 A3024 RMK AO2 RAE12 SLP238 P0002 60005 T00780044 58012

More Conditions Fewer Conditions

Pressure 30.24 in
Visibility 10.0 miles
Clouds Few 4600 ft
Scattered Clouds 7000 ft
Overcast 10000 ft
Windchill 43 °F
Dew Point 40 °F
Humidity 79%
Rainfall 0.11 in
Snow Depth Not available.
UV 0 out of 12
Pollen .50 out of 12
Air Quality Not available.
Flu Activity Not available.
METAR KTTD 282053Z 23005KT 10SM FEW046 SCT070 OVC100 08/04 A3024 RMK AO2 RAE12 SLP238 P0002 60005 T00780044 58012

More Conditions Fewer Conditions

10-Day Weather Forecast

Almanac

Astronomy

Dec. 28, 2014 Rise Set
Actual Time
Civil Twilight
Nautical Twilight
Astronomical Twilight
Moon
Length of Visible Light
Length of Day
Tomorrow will be .
, % of the Moon is Illuminated

Today's Extremes

State Highs State Lows

Community

WunderPhotos

Upload Photos

1,781,429 photos uploaded!

WunderBlogs® & News

Nearby

Air Quality

  Air Quality AQ Index Pollutant
Not available.

Snow Depth

Station Depth Elevation

Earthquake Activity

City Distance Mag. Time & Date
Minimum magnitude displayed is 2.5.

Coastal Water Temperatures

Place Temperature

Nearby Weather Stations